Time;durP1;ratioP1;P1;durP2;ratioP2;P2;SDS_P1;SDS_P2;PMS_P1;PMS_P2;Temp;Humidity;BMP_temperature;BMP_pressure;BME280_temperature;BME280_humidity;BME280_pressure;Samples;Min_cycle;Max_cycle;Signal;HPM_P1;HPM_P2
2022/04/23 00:00:20;;;;;;;;;5.50;4.50;;;;;;;;5095780;27;51076;-47
2022/04/23 00:03:05;;;;;;;;;5.25;5.25;;;;;;;;5080753;27;50969;-48
2022/04/23 00:05:49;;;;;;;;;4.25;4.25;;;;;;;;5098209;27;51356;-48
2022/04/23 00:08:34;;;;;;;;;6.75;5.75;;;;;;;;5095446;27;51995;-50
2022/04/23 00:11:19;;;;;;;;;6.25;4.75;;;;;;;;5080651;27;51055;-50
2022/04/23 00:14:07;;;;;;;;;4.50;4.00;;;;;;;;5079949;27;51092;-50
2022/04/23 00:16:51;;;;;;;;;7.75;4.75;;;;;;;;5080750;27;51083;-49
2022/04/23 00:19:40;;;;;;;;;6.75;5.00;;;;;;;;5085714;27;51349;-49
2022/04/23 00:22:29;;;;;;;;;6.25;4.00;;;;;;;;5089040;27;51065;-48
2022/04/23 00:25:16;;;;;;;;;5.00;4.00;;;;;;;;5079710;27;51117;-47
2022/04/23 00:28:00;;;;;;;;;5.50;4.00;;;;;;;;5080291;27;51127;-48
2022/04/23 00:30:45;;;;;;;;;3.25;3.25;;;;;;;;5085943;27;51090;-49
2022/04/23 00:33:29;;;;;;;;;3.00;3.00;;;;;;;;5100570;27;51222;-47
2022/04/23 00:36:15;;;;;;;;;5.50;3.75;;;;;;;;5100369;27;51011;-51
2022/04/23 00:39:01;;;;;;;;;5.25;4.00;;;;;;;;5084505;27;51104;-47
2022/04/23 00:41:48;;;;;;;;;6.75;3.50;;;;;;;;5095565;27;51241;-50
2022/04/23 00:44:32;;;;;;;;;6.50;3.25;;;;;;;;5100078;27;51182;-49
2022/04/23 00:47:22;;;;;;;;;3.50;3.50;;;;;;;;5097974;27;51438;-47
2022/04/23 00:50:06;;;;;;;;;6.25;3.00;;;;;;;;5079637;27;51179;-48
2022/04/23 00:52:54;;;;;;;;;5.50;2.50;;;;;;;;5079883;27;51103;-48
2022/04/23 00:55:39;;;;;;;;;3.75;2.00;;;;;;;;5079782;27;51085;-49
2022/04/23 00:58:29;;;;;;;;;3.50;1.75;;;;;;;;5081949;27;51071;-50
2022/04/23 01:01:34;;;;;;;;;3.75;2.50;;;;;;;;5098267;27;51158;-48
2022/04/23 01:04:24;;;;;;;;;3.00;3.00;;;;;;;;5079416;27;51091;-48
2022/04/23 01:07:11;;;;;;;;;2.75;2.00;;;;;;;;5096719;27;51005;-47
2022/04/23 01:09:58;;;;;;;;;1.75;1.75;;;;;;;;5100037;27;51161;-48
2022/04/23 01:12:53;;;;;;;;;3.50;3.00;;;;;;;;5100080;27;51118;-50
2022/04/23 01:15:43;;;;;;;;;3.25;2.75;;;;;;;;5099688;27;51039;-49
2022/04/23 01:18:34;;;;;;;;;1.75;1.75;;;;;;;;5100068;27;51158;-49
2022/04/23 01:21:21;;;;;;;;;3.25;1.75;;;;;;;;5082694;27;51465;-48
2022/04/23 01:24:09;;;;;;;;;5.00;3.00;;;;;;;;5094792;27;51382;-48
2022/04/23 01:26:55;;;;;;;;;2.75;2.75;;;;;;;;5100135;27;51104;-48
2022/04/23 01:29:49;;;;;;;;;7.75;2.75;;;;;;;;5096278;27;51056;-49
2022/04/23 01:32:34;;;;;;;;;3.75;3.75;;;;;;;;5078353;27;51144;-49
2022/04/23 01:35:21;;;;;;;;;2.75;2.75;;;;;;;;5085617;27;51551;-47
2022/04/23 01:38:05;;;;;;;;;4.25;3.00;;;;;;;;5085847;27;51326;-50
2022/04/23 01:40:52;;;;;;;;;6.25;3.75;;;;;;;;5078709;27;51184;-48
2022/04/23 01:43:46;;;;;;;;;4.50;2.75;;;;;;;;5079157;27;51086;-48
2022/04/23 01:46:33;;;;;;;;;6.75;3.75;;;;;;;;5082018;27;51108;-46
2022/04/23 01:49:19;;;;;;;;;4.00;3.00;;;;;;;;5098565;27;51071;-48
2022/04/23 01:52:24;;;;;;;;;4.25;3.00;;;;;;;;5091045;27;51393;-51
2022/04/23 01:55:10;;;;;;;;;3.25;2.75;;;;;;;;5083120;27;51065;-52
2022/04/23 01:57:56;;;;;;;;;4.50;3.25;;;;;;;;5085872;27;51150;-50
2022/04/23 02:00:41;;;;;;;;;7.75;4.00;;;;;;;;5094191;27;51564;-49
2022/04/23 02:03:37;;;;;;;;;5.25;3.75;;;;;;;;5099925;27;51372;-50
2022/04/23 02:06:43;;;;;;;;;4.50;3.50;;;;;;;;5103398;27;51086;-48
2022/04/23 02:09:50;;;;;;;;;3.25;3.25;;;;;;;;5103231;27;51038;-50
2022/04/23 02:12:40;;;;;;;;;6.00;3.75;;;;;;;;5103330;27;51142;-50
2022/04/23 02:15:26;;;;;;;;;7.50;5.00;;;;;;;;5103215;27;51124;-51
2022/04/23 02:18:11;;;;;;;;;4.50;4.00;;;;;;;;5082740;27;51342;-48
2022/04/23 02:21:01;;;;;;;;;4.75;3.75;;;;;;;;5082217;27;51114;-50
2022/04/23 02:23:47;;;;;;;;;3.75;3.75;;;;;;;;5082893;27;51097;-49
2022/04/23 02:26:33;;;;;;;;;6.25;3.75;;;;;;;;5082626;27;51217;-51
2022/04/23 02:29:29;;;;;;;;;6.00;3.75;;;;;;;;5095041;27;51591;-49
2022/04/23 02:32:13;;;;;;;;;3.75;2.75;;;;;;;;5101214;27;51102;-49
2022/04/23 02:35:04;;;;;;;;;7.25;3.75;;;;;;;;5102997;27;50997;-48
2022/04/23 02:37:48;;;;;;;;;6.00;5.00;;;;;;;;5102791;27;51461;-49
2022/04/23 02:40:39;;;;;;;;;2.00;2.00;;;;;;;;5089156;27;51160;-49
2022/04/23 02:43:24;;;;;;;;;3.75;3.75;;;;;;;;5082233;27;51378;-51
2022/04/23 02:46:12;;;;;;;;;4.50;3.25;;;;;;;;5100647;27;51115;-49
2022/04/23 02:49:16;;;;;;;;;3.75;2.75;;;;;;;;5102837;27;51153;-48
2022/04/23 02:52:01;;;;;;;;;5.75;4.25;;;;;;;;5102739;27;51045;-50
2022/04/23 02:54:45;;;;;;;;;4.75;4.00;;;;;;;;5087919;27;51409;-48
2022/04/23 02:57:41;;;;;;;;;5.25;4.00;;;;;;;;5081409;27;50990;-47
2022/04/23 03:00:27;;;;;;;;;4.50;2.75;;;;;;;;5082608;27;51164;-50
2022/04/23 03:03:13;;;;;;;;;4.00;3.75;;;;;;;;5081462;27;51475;-49
2022/04/23 03:05:57;;;;;;;;;5.25;3.50;;;;;;;;5097351;27;51136;-52
2022/04/23 03:09:03;;;;;;;;;2.75;2.75;;;;;;;;5102403;27;51075;-49
2022/04/23 03:11:48;;;;;;;;;4.00;3.00;;;;;;;;5089868;27;51162;-50
2022/04/23 03:14:45;;;;;;;;;4.75;3.00;;;;;;;;5086573;27;51069;-52
2022/04/23 03:17:34;;;;;;;;;4.50;3.00;;;;;;;;5101573;27;51225;-49
2022/04/23 03:20:21;;;;;;;;;4.00;4.00;;;;;;;;5093374;27;51033;-47
2022/04/23 03:23:07;;;;;;;;;8.00;4.00;;;;;;;;5086139;27;51097;-49
2022/04/23 03:25:52;;;;;;;;;4.25;3.00;;;;;;;;5081970;27;51067;-50
2022/04/23 03:28:39;;;;;;;;;3.75;2.75;;;;;;;;5081083;27;51399;-47
2022/04/23 03:31:27;;;;;;;;;4.00;3.25;;;;;;;;5081127;27;51119;-49
2022/04/23 03:34:19;;;;;;;;;5.50;3.00;;;;;;;;5081400;27;51092;-50
2022/04/23 03:37:12;;;;;;;;;2.00;2.00;;;;;;;;5081265;27;51391;-52
2022/04/23 03:39:57;;;;;;;;;4.75;3.50;;;;;;;;5095184;27;51004;-52
2022/04/23 03:42:45;;;;;;;;;1.50;1.50;;;;;;;;5101336;27;51244;-51
2022/04/23 03:45:32;;;;;;;;;3.75;3.75;;;;;;;;5101404;27;51098;-49
2022/04/23 03:48:18;;;;;;;;;5.00;2.50;;;;;;;;5085371;27;51114;-47
2022/04/23 03:51:07;;;;;;;;;4.00;2.75;;;;;;;;5081359;27;51036;-49
2022/04/23 03:53:54;;;;;;;;;4.50;2.00;;;;;;;;5083006;27;51394;-48
2022/04/23 03:56:42;;;;;;;;;6.25;3.00;;;;;;;;5101170;27;51156;-48
2022/04/23 03:59:37;;;;;;;;;1.75;1.25;;;;;;;;5101203;27;51117;-51
2022/04/23 04:02:22;;;;;;;;;6.00;3.25;;;;;;;;5101068;27;51169;-50
2022/04/23 04:05:07;;;;;;;;;6.00;3.50;;;;;;;;5101127;27;51144;-51
2022/04/23 04:07:54;;;;;;;;;1.75;1.75;;;;;;;;5100054;27;51151;-51
2022/04/23 04:10:50;;;;;;;;;5.00;4.50;;;;;;;;5100897;27;51326;-50
2022/04/23 04:13:40;;;;;;;;;4.50;2.50;;;;;;;;5100705;27;51088;-51
2022/04/23 04:16:26;;;;;;;;;3.50;2.75;;;;;;;;5101160;27;51025;-52
2022/04/23 04:19:14;;;;;;;;;3.75;2.75;;;;;;;;5100957;27;51334;-50
2022/04/23 04:22:06;;;;;;;;;3.25;1.50;;;;;;;;5100986;27;51110;-49
2022/04/23 04:24:56;;;;;;;;;3.75;2.00;;;;;;;;5089587;27;51113;-50
2022/04/23 04:27:43;;;;;;;;;2.00;2.00;;;;;;;;5079914;27;51072;-49
2022/04/23 04:31:47;;;;;;;;;4.75;2.00;;;;;;;;5080470;27;51164;-53
2022/04/23 04:33:38;;;;;;;;;2.50;1.75;;;;;;;;5080298;27;51364;-49
2022/04/23 04:36:27;;;;;;;;;5.25;2.50;;;;;;;;5080177;27;51116;-49
2022/04/23 04:39:13;;;;;;;;;3.25;2.75;;;;;;;;5080123;27;51056;-50
2022/04/23 04:42:04;;;;;;;;;3.25;2.00;;;;;;;;5099167;27;51067;-48
2022/04/23 04:44:52;;;;;;;;;5.50;3.00;;;;;;;;5099848;27;51128;-48
2022/04/23 04:47:39;;;;;;;;;7.75;3.00;;;;;;;;5094517;27;51083;-50
2022/04/23 04:50:24;;;;;;;;;4.25;3.00;;;;;;;;5093796;27;51441;-48
2022/04/23 04:53:09;;;;;;;;;3.00;3.00;;;;;;;;5100406;27;51094;-53
2022/04/23 04:55:55;;;;;;;;;2.75;2.75;;;;;;;;5090630;27;51352;-49
2022/04/23 04:58:43;;;;;;;;;6.00;4.00;;;;;;;;5087155;27;51141;-49
2022/04/23 05:01:52;;;;;;;;;4.25;3.75;;;;;;;;5100617;27;51139;-50
2022/04/23 05:04:37;;;;;;;;;6.00;4.00;;;;;;;;5092953;27;51035;-51
2022/04/23 05:07:27;;;;;;;;;9.25;9.00;;;;;;;;5099230;27;51007;-53
2022/04/23 05:10:13;;;;;;;;;11.00;8.50;;;;;;;;5101461;27;51453;-51
2022/04/23 05:13:02;;;;;;;;;14.75;12.75;;;;;;;;5079618;27;51293;-49
2022/04/23 05:15:48;;;;;;;;;18.25;13.50;;;;;;;;5094101;27;51076;-50
2022/04/23 05:21:50;;;;;;;;;18.25;18.00;;;;;;;;5040912;28;51525;-50
2022/04/23 05:24:35;;;;;;;;;24.50;21.75;;;;;;;;5040589;28;51164;-50
2022/04/23 05:27:28;;;;;;;;;19.00;16.25;;;;;;;;5048985;28;52248;-47
2022/04/23 05:30:12;;;;;;;;;27.25;22.50;;;;;;;;5048734;28;51127;-49
2022/04/23 05:32:58;;;;;;;;;25.25;21.75;;;;;;;;5040933;28;51132;-52
2022/04/23 05:35:44;;;;;;;;;26.25;23.00;;;;;;;;5040770;28;51182;-46
2022/04/23 05:38:49;;;;;;;;;20.50;18.25;;;;;;;;5048711;28;52065;-49
2022/04/23 05:41:54;;;;;;;;;15.75;15.75;;;;;;;;5040724;28;51494;-49
2022/04/23 05:44:49;;;;;;;;;21.00;18.50;;;;;;;;5040393;28;51043;-48
2022/04/23 05:47:33;;;;;;;;;23.50;20.50;;;;;;;;5040250;28;51389;-49
2022/04/23 05:50:18;;;;;;;;;25.00;19.50;;;;;;;;5040300;28;51129;-51
2022/04/23 05:53:02;;;;;;;;;28.50;25.00;;;;;;;;5056044;28;51259;-50
2022/04/23 05:55:46;;;;;;;;;28.75;23.50;;;;;;;;5045362;28;51191;-47
2022/04/23 05:58:39;;;;;;;;;27.75;24.50;;;;;;;;5072970;27;51179;-49
2022/04/23 06:01:27;;;;;;;;;33.00;28.50;;;;;;;;5101883;27;51374;-48
2022/04/23 06:04:13;;;;;;;;;32.75;30.00;;;;;;;;5083016;27;51076;-49
2022/04/23 06:07:01;;;;;;;;;31.25;29.00;;;;;;;;5083273;27;51139;-49
2022/04/23 06:09:55;;;;;;;;;40.50;33.50;;;;;;;;5085523;27;51131;-51
2022/04/23 06:12:41;;;;;;;;;43.75;35.25;;;;;;;;5092547;27;51545;-51
2022/04/23 06:15:25;;;;;;;;;44.00;35.25;;;;;;;;5083468;27;51116;-48
2022/04/23 06:18:10;;;;;;;;;46.00;36.50;;;;;;;;5103277;27;51070;-50
2022/04/23 06:20:58;;;;;;;;;43.25;35.75;;;;;;;;5102993;27;51082;-49
2022/04/23 06:23:45;;;;;;;;;51.75;35.75;;;;;;;;5103049;27;51125;-47
2022/04/23 06:26:36;;;;;;;;;41.50;33.00;;;;;;;;5102835;27;51065;-50
2022/04/23 06:29:25;;;;;;;;;44.00;34.00;;;;;;;;5103052;27;51119;-51
2022/04/23 06:32:14;;;;;;;;;47.50;36.50;;;;;;;;5102395;27;51505;-49
2022/04/23 06:35:07;;;;;;;;;43.25;36.00;;;;;;;;5102882;27;51080;-51
2022/04/23 06:38:01;;;;;;;;;41.25;33.50;;;;;;;;5102620;27;51453;-47
2022/04/23 06:40:49;;;;;;;;;45.75;39.00;;;;;;;;5083191;27;51078;-49
2022/04/23 06:43:35;;;;;;;;;43.00;35.50;;;;;;;;5098042;27;51089;-51
2022/04/23 06:46:23;;;;;;;;;47.75;38.25;;;;;;;;5095891;27;51069;-51
2022/04/23 06:49:08;;;;;;;;;41.25;33.50;;;;;;;;5081976;27;51088;-49
2022/04/23 06:51:52;;;;;;;;;40.25;33.50;;;;;;;;5081751;27;51095;-51
2022/04/23 06:54:59;;;;;;;;;40.75;31.50;;;;;;;;5081726;27;51023;-49
2022/04/23 06:58:03;;;;;;;;;37.00;31.50;;;;;;;;5081807;27;51076;-51
2022/04/23 07:01:07;;;;;;;;;30.00;28.75;;;;;;;;5081785;27;51072;-49
2022/04/23 07:04:09;;;;;;;;;43.50;36.25;;;;;;;;5091536;27;51503;-50
2022/04/23 07:07:15;;;;;;;;;44.75;36.75;;;;;;;;5091625;27;51077;-50
2022/04/23 07:10:09;;;;;;;;;45.25;34.75;;;;;;;;5080102;27;51292;-50
2022/04/23 07:13:00;;;;;;;;;38.00;32.75;;;;;;;;5081347;27;51150;-49
2022/04/23 07:15:53;;;;;;;;;37.50;31.50;;;;;;;;5081912;27;51048;-50
2022/04/23 07:18:40;;;;;;;;;59.75;46.25;;;;;;;;5101879;27;51093;-50
2022/04/23 07:21:45;;;;;;;;;64.75;50.25;;;;;;;;5102194;27;51126;-50
2022/04/23 07:24:32;;;;;;;;;47.50;37.50;;;;;;;;5081253;27;51132;-51
2022/04/23 07:27:16;;;;;;;;;36.50;29.50;;;;;;;;5081749;27;51099;-48
2022/04/23 07:30:03;;;;;;;;;54.00;43.00;;;;;;;;5080935;27;51447;-50
2022/04/23 07:32:50;;;;;;;;;88.25;83.50;;;;;;;;5081330;27;51161;-50
2022/04/23 07:38:55;;;;;;;;;57.75;46.50;;;;;;;;5082373;27;51164;-50
2022/04/23 07:42:02;;;;;;;;;55.00;44.25;;;;;;;;5096247;27;51165;-51
2022/04/23 07:44:51;;;;;;;;;75.75;69.50;;;;;;;;5095803;27;51526;-53
2022/04/23 07:47:36;;;;;;;;;89.25;76.75;;;;;;;;5101265;27;51246;-52
2022/04/23 07:50:42;;;;;;;;;41.25;32.25;;;;;;;;5097944;27;51027;-51
2022/04/23 07:53:28;;;;;;;;;31.00;26.50;;;;;;;;5100390;27;51051;-50
2022/04/23 07:56:16;;;;;;;;;29.00;26.25;;;;;;;;5100646;27;51158;-49
2022/04/23 07:59:08;;;;;;;;;31.00;28.25;;;;;;;;5101440;27;51078;-50
2022/04/23 08:01:56;;;;;;;;;46.50;37.50;;;;;;;;5101566;27;51569;-51
2022/04/23 08:04:41;;;;;;;;;31.75;28.75;;;;;;;;5100905;27;51052;-49
2022/04/23 08:07:27;;;;;;;;;32.00;27.50;;;;;;;;5101154;27;51257;-50
2022/04/23 08:10:14;;;;;;;;;25.25;23.25;;;;;;;;5100828;27;51031;-53
2022/04/23 08:13:02;;;;;;;;;19.00;15.25;;;;;;;;5101335;27;51302;-50
2022/04/23 08:15:48;;;;;;;;;24.50;19.25;;;;;;;;5081533;27;51183;-53
2022/04/23 08:18:33;;;;;;;;;22.25;12.75;;;;;;;;5080643;27;51226;-51
2022/04/23 08:21:29;;;;;;;;;15.75;15.50;;;;;;;;5080423;27;51163;-52
2022/04/23 08:24:25;;;;;;;;;10.50;8.50;;;;;;;;5080412;27;51154;-49
2022/04/23 08:27:11;;;;;;;;;9.00;6.50;;;;;;;;5094655;27;51067;-49
2022/04/23 08:33:00;;;;;;;;;7.25;6.75;;;;;;;;5094064;27;51220;-50
2022/04/23 08:35:45;;;;;;;;;3.00;3.00;;;;;;;;5079853;27;51162;-49
2022/04/23 08:38:32;;;;;;;;;8.00;6.25;;;;;;;;5080341;27;51041;-51
2022/04/23 08:41:17;;;;;;;;;10.00;7.75;;;;;;;;5080107;27;51150;-48
2022/04/23 08:44:08;;;;;;;;;6.75;6.00;;;;;;;;5079937;27;51097;-49
2022/04/23 08:46:59;;;;;;;;;7.50;6.00;;;;;;;;5095700;27;51127;-50
2022/04/23 08:49:45;;;;;;;;;8.00;6.50;;;;;;;;5096943;27;51290;-51
2022/04/23 08:52:36;;;;;;;;;5.25;2.50;;;;;;;;5086109;27;51263;-50
2022/04/23 08:55:28;;;;;;;;;8.00;6.50;;;;;;;;5079380;27;51118;-52
2022/04/23 08:58:13;;;;;;;;;5.00;3.25;;;;;;;;5079782;27;51191;-50
2022/04/23 09:01:02;;;;;;;;;4.25;3.25;;;;;;;;5095550;27;51021;-52
2022/04/23 09:03:49;;;;;;;;;5.75;5.75;;;;;;;;5079875;27;50998;-49
2022/04/23 09:06:40;;;;;;;;;5.00;4.00;;;;;;;;5079839;27;51010;-49
2022/04/23 09:09:32;;;;;;;;;7.50;4.00;;;;;;;;5080110;27;51139;-52
2022/04/23 09:12:28;;;;;;;;;5.00;5.00;;;;;;;;5097838;27;51485;-50
2022/04/23 09:24:43;;;;;;;;;6.50;5.00;;;;;;;;5094813;27;51055;-49
2022/04/23 09:27:30;;;;;;;;;2.50;2.50;;;;;;;;5090310;27;51136;-49
2022/04/23 09:30:40;;;;;;;;;3.25;2.00;;;;;;;;5099871;27;51213;-49
2022/04/23 09:33:29;;;;;;;;;6.00;3.50;;;;;;;;5099703;27;51306;-50
2022/04/23 09:36:15;;;;;;;;;5.25;3.00;;;;;;;;5100197;27;51150;-48
2022/04/23 09:39:03;;;;;;;;;3.00;3.00;;;;;;;;5079302;27;51076;-49
2022/04/23 09:41:48;;;;;;;;;8.50;7.75;;;;;;;;5090197;27;52385;-51
2022/04/23 09:44:33;;;;;;;;;4.50;2.50;;;;;;;;5099676;27;51298;-50
2022/04/23 09:47:34;;;;;;;;;5.75;3.25;;;;;;;;5099771;27;51000;-50
2022/04/23 09:50:20;;;;;;;;;4.75;4.75;;;;;;;;5099813;27;51134;-47
2022/04/23 09:53:10;;;;;;;;;4.75;3.25;;;;;;;;5099993;27;51148;-49
2022/04/23 09:55:59;;;;;;;;;3.25;3.25;;;;;;;;5099884;27;51556;-48
2022/04/23 09:58:43;;;;;;;;;5.50;5.50;;;;;;;;5099086;27;51071;-50
2022/04/23 10:01:31;;;;;;;;;4.25;2.25;;;;;;;;5092932;27;51095;-50
2022/04/23 10:04:35;;;;;;;;;7.25;7.00;;;;;;;;5098557;27;51242;-49
2022/04/23 10:07:21;;;;;;;;;6.00;4.00;;;;;;;;5086555;27;51136;-49
2022/04/23 10:10:28;;;;;;;;;5.50;5.50;;;;;;;;5099143;27;51454;-49
2022/04/23 10:13:13;;;;;;;;;10.75;7.25;;;;;;;;5082521;27;51079;-50
2022/04/23 10:16:02;;;;;;;;;7.25;5.50;;;;;;;;5082853;27;51148;-47
2022/04/23 10:18:49;;;;;;;;;4.50;3.25;;;;;;;;5082615;27;51454;-48
2022/04/23 10:21:42;;;;;;;;;5.00;3.00;;;;;;;;5082955;27;51172;-51
2022/04/23 10:24:56;;;;;;;;;5.50;2.25;;;;;;;;5082558;27;51121;-49
2022/04/23 10:27:44;;;;;;;;;3.00;3.00;;;;;;;;5055579;28;51100;-49
2022/04/23 10:30:36;;;;;;;;;4.50;3.50;;;;;;;;5052955;28;51046;-50
2022/04/23 10:33:38;;;;;;;;;4.00;2.75;;;;;;;;5059904;28;51115;-48
2022/04/23 10:36:23;;;;;;;;;5.50;3.25;;;;;;;;5054808;28;51037;-52
2022/04/23 10:39:23;;;;;;;;;2.50;2.50;;;;;;;;5039427;28;51073;-50
2022/04/23 10:42:13;;;;;;;;;3.00;3.00;;;;;;;;5056349;28;51211;-49
2022/04/23 10:45:06;;;;;;;;;5.25;5.25;;;;;;;;5078894;27;51496;-50
2022/04/23 10:48:26;;;;;;;;;6.00;3.00;;;;;;;;5095165;27;52070;-51
2022/04/23 10:51:21;;;;;;;;;3.50;3.00;;;;;;;;5081910;27;51116;-51
2022/04/23 10:54:11;;;;;;;;;4.00;2.25;;;;;;;;5082464;27;51095;-47
2022/04/23 10:57:05;;;;;;;;;3.00;2.25;;;;;;;;5089073;27;51497;-49
2022/04/23 11:00:30;;;;;;;;;4.50;4.50;;;;;;;;5102372;27;51062;-48
2022/04/23 11:03:15;;;;;;;;;4.00;3.50;;;;;;;;5041817;28;51545;-49
2022/04/23 11:12:37;;;;;;;;;2.25;2.25;;;;;;;;5081487;27;51384;-49
2022/04/23 11:15:34;;;;;;;;;1.75;1.75;;;;;;;;5081481;27;51143;-52
2022/04/23 11:18:23;;;;;;;;;4.75;4.00;;;;;;;;5088038;27;51059;-49
2022/04/23 11:21:24;;;;;;;;;6.50;6.50;;;;;;;;5102378;27;51134;-49
2022/04/23 11:24:11;;;;;;;;;3.25;3.25;;;;;;;;5101980;27;51161;-51
2022/04/23 11:26:59;;;;;;;;;8.00;6.50;;;;;;;;5081859;27;51178;-50
2022/04/23 11:29:50;;;;;;;;;4.25;3.50;;;;;;;;5081236;27;51399;-51
2022/04/23 11:32:39;;;;;;;;;5.25;5.00;;;;;;;;5080769;27;51072;-50
2022/04/23 11:35:36;;;;;;;;;7.25;6.00;;;;;;;;5096286;27;51111;-47
2022/04/23 11:38:25;;;;;;;;;3.50;3.00;;;;;;;;5101664;27;51508;-49
2022/04/23 11:41:09;;;;;;;;;8.50;7.25;;;;;;;;5090109;27;51353;-50
2022/04/23 11:44:04;;;;;;;;;7.75;4.00;;;;;;;;5098619;27;51148;-50
2022/04/23 11:46:50;;;;;;;;;4.00;2.00;;;;;;;;5100382;27;51087;-48
2022/04/23 11:49:34;;;;;;;;;7.75;3.00;;;;;;;;5080996;27;51028;-47
2022/04/23 11:52:19;;;;;;;;;5.75;5.00;;;;;;;;5080880;27;51112;-47
2022/04/23 11:55:09;;;;;;;;;3.00;2.50;;;;;;;;5089418;27;51093;-49
2022/04/23 11:57:57;;;;;;;;;6.50;2.00;;;;;;;;5080770;27;51316;-48
2022/04/23 12:00:46;;;;;;;;;4.50;1.75;;;;;;;;5101814;27;51074;-49
2022/04/23 12:03:36;;;;;;;;;5.00;3.00;;;;;;;;5085480;27;51452;-49
2022/04/23 12:06:22;;;;;;;;;5.50;4.50;;;;;;;;5088427;27;51181;-48
2022/04/23 12:09:08;;;;;;;;;0.50;0.50;;;;;;;;5080489;27;51172;-50
2022/04/23 12:11:59;;;;;;;;;0.00;0.00;;;;;;;;5081144;27;51338;-47
2022/04/23 12:14:48;;;;;;;;;0.25;0.25;;;;;;;;5100943;27;51182;-47
2022/04/23 12:17:46;;;;;;;;;0.50;0.50;;;;;;;;5100482;27;51097;-48
2022/04/23 12:20:35;;;;;;;;;1.00;0.00;;;;;;;;5100495;27;51181;-49
2022/04/23 12:23:19;;;;;;;;;1.00;1.00;;;;;;;;5090909;27;51286;-49
2022/04/23 12:26:12;;;;;;;;;0.00;0.00;;;;;;;;5094576;27;51005;-51
2022/04/23 12:40:58;;;;;;;;;0.50;0.50;;;;;;;;5100364;27;51409;-50
2022/04/23 12:44:02;;;;;;;;;0.75;0.00;;;;;;;;5099326;27;51115;-49
2022/04/23 12:46:59;;;;;;;;;3.00;1.00;;;;;;;;5100430;27;51146;-47
2022/04/23 12:49:48;;;;;;;;;1.00;1.00;;;;;;;;5095238;27;51167;-50
2022/04/23 12:52:45;;;;;;;;;2.00;1.00;;;;;;;;5095377;27;51151;-46
2022/04/23 12:55:36;;;;;;;;;1.25;0.00;;;;;;;;5078844;27;51328;-48
2022/04/23 12:58:20;;;;;;;;;3.50;0.00;;;;;;;;5079719;27;51359;-49
2022/04/23 13:01:08;;;;;;;;;1.00;0.00;;;;;;;;5096797;27;51112;-48
2022/04/23 13:03:55;;;;;;;;;0.00;0.00;;;;;;;;5100597;27;51133;-48
2022/04/23 13:09:58;;;;;;;;;1.00;0.00;;;;;;;;5100334;27;51191;-49
2022/04/23 13:12:44;;;;;;;;;3.00;0.00;;;;;;;;5089435;27;51052;-49
2022/04/23 13:15:54;;;;;;;;;0.00;0.00;;;;;;;;5079211;27;51276;-47
2022/04/23 13:18:40;;;;;;;;;2.00;0.75;;;;;;;;5082549;27;51152;-46
2022/04/23 13:21:36;;;;;;;;;1.25;0.00;;;;;;;;5099666;27;51584;-49
2022/04/23 13:24:27;;;;;;;;;0.75;0.00;;;;;;;;5100069;27;51103;-49
2022/04/23 13:27:33;;;;;;;;;1.25;1.25;;;;;;;;5084318;27;51168;-47
2022/04/23 13:30:18;;;;;;;;;5.50;1.00;;;;;;;;5079796;27;51138;-48
2022/04/23 13:33:03;;;;;;;;;1.50;0.00;;;;;;;;5098813;27;51357;-48
2022/04/23 13:35:48;;;;;;;;;0.00;0.00;;;;;;;;5099854;27;51317;-48
2022/04/23 13:38:45;;;;;;;;;0.00;0.00;;;;;;;;5098442;27;51279;-49
2022/04/23 13:41:50;;;;;;;;;0.50;0.00;;;;;;;;5098616;27;51135;-51
2022/04/23 13:44:36;;;;;;;;;1.00;0.00;;;;;;;;5104025;27;51005;-49
2022/04/23 13:47:21;;;;;;;;;0.00;0.00;;;;;;;;5088813;27;51139;-47
2022/04/23 13:50:20;;;;;;;;;1.00;0.00;;;;;;;;5103043;27;51142;-49
2022/04/23 13:53:34;;;;;;;;;1.00;0.00;;;;;;;;5103833;27;51184;-49
2022/04/23 13:56:35;;;;;;;;;0.75;0.00;;;;;;;;5088352;27;50961;-48
2022/04/23 13:59:23;;;;;;;;;0.00;0.00;;;;;;;;5084702;27;51317;-48
2022/04/23 14:11:30;;;;;;;;;0.00;0.00;;;;;;;;5094532;27;51106;-50
2022/04/23 14:14:17;;;;;;;;;4.00;1.00;;;;;;;;5100526;27;51412;-50
2022/04/23 14:17:06;;;;;;;;;1.00;0.00;;;;;;;;5100631;27;51397;-49
2022/04/23 14:19:58;;;;;;;;;1.00;0.50;;;;;;;;5066289;27;51173;-47
2022/04/23 14:22:43;;;;;;;;;1.25;1.25;;;;;;;;5097571;27;51178;-48
2022/04/23 14:25:30;;;;;;;;;1.25;0.25;;;;;;;;5102915;27;51484;-51
2022/04/23 14:28:35;;;;;;;;;0.00;0.00;;;;;;;;5103248;27;51171;-46
2022/04/23 14:31:19;;;;;;;;;0.00;0.00;;;;;;;;5084882;27;51085;-49
2022/04/23 14:34:10;;;;;;;;;0.75;0.00;;;;;;;;5082314;27;51030;-47
2022/04/23 14:36:56;;;;;;;;;0.00;0.00;;;;;;;;5082607;27;51092;-48
2022/04/23 14:39:44;;;;;;;;;4.75;2.25;;;;;;;;5082533;27;51109;-51
2022/04/23 14:42:30;;;;;;;;;3.25;1.75;;;;;;;;5082148;27;51094;-47
2022/04/23 14:45:18;;;;;;;;;2.00;1.75;;;;;;;;5081881;27;51206;-49
2022/04/23 14:48:07;;;;;;;;;5.75;4.75;;;;;;;;5082939;27;51147;-49
2022/04/23 14:54:30;;;;;;;;;0.00;0.00;;;;;;;;5082002;27;51132;-50
2022/04/23 14:57:18;;;;;;;;;0.75;0.75;;;;;;;;5082355;27;51408;-52
2022/04/23 15:00:04;;;;;;;;;0.50;0.00;;;;;;;;5081912;27;51085;-51
2022/04/23 15:02:53;;;;;;;;;2.25;0.75;;;;;;;;5102333;27;51086;-48
2022/04/23 15:05:41;;;;;;;;;3.75;1.00;;;;;;;;5090762;27;51282;-48
2022/04/23 15:08:28;;;;;;;;;0.75;0.25;;;;;;;;5081871;27;51132;-51
2022/04/23 15:11:36;;;;;;;;;2.00;0.50;;;;;;;;5081862;27;51017;-50
2022/04/23 15:14:21;;;;;;;;;1.75;1.00;;;;;;;;5099126;27;51024;-49
2022/04/23 15:17:09;;;;;;;;;2.50;0.00;;;;;;;;5102004;27;50970;-48
2022/04/23 15:20:02;;;;;;;;;0.00;0.00;;;;;;;;5089535;27;51003;-50
2022/04/23 15:22:48;;;;;;;;;0.00;0.00;;;;;;;;5081371;27;51175;-51
2022/04/23 15:25:43;;;;;;;;;0.25;0.25;;;;;;;;5081255;27;51132;-48
2022/04/23 15:28:51;;;;;;;;;0.00;0.00;;;;;;;;5081548;27;51017;-47
2022/04/23 15:31:56;;;;;;;;;3.50;1.75;;;;;;;;5081250;27;51021;-49
2022/04/23 15:34:54;;;;;;;;;1.50;1.00;;;;;;;;5090086;27;51371;-48
2022/04/23 15:37:39;;;;;;;;;2.00;1.00;;;;;;;;5083531;27;51123;-50
2022/04/23 15:40:25;;;;;;;;;2.25;0.00;;;;;;;;5080614;27;51224;-51
2022/04/23 15:43:11;;;;;;;;;0.00;0.00;;;;;;;;5081178;27;51022;-49
2022/04/23 15:46:03;;;;;;;;;0.00;0.00;;;;;;;;5080999;27;50998;-48
2022/04/23 15:48:55;;;;;;;;;0.50;0.00;;;;;;;;5080868;27;51416;-49
2022/04/23 15:51:49;;;;;;;;;3.75;2.50;;;;;;;;5080558;27;51167;-49
2022/04/23 15:54:34;;;;;;;;;6.25;3.75;;;;;;;;5081282;27;51018;-48
2022/04/23 15:57:37;;;;;;;;;5.00;3.00;;;;;;;;5080908;27;51083;-48
2022/04/23 16:00:33;;;;;;;;;7.25;5.50;;;;;;;;5081070;27;51275;-50
2022/04/23 16:03:32;;;;;;;;;2.25;2.25;;;;;;;;5094270;27;51059;-49
2022/04/23 16:06:20;;;;;;;;;6.25;3.75;;;;;;;;5101651;27;51016;-46
2022/04/23 16:09:06;;;;;;;;;8.50;7.25;;;;;;;;5092277;27;51088;-49
2022/04/23 16:11:52;;;;;;;;;4.75;1.75;;;;;;;;5092773;27;51083;-51
2022/04/23 16:14:37;;;;;;;;;4.00;3.00;;;;;;;;5080817;27;51131;-49
2022/04/23 16:17:45;;;;;;;;;1.00;0.50;;;;;;;;5080228;27;51206;-50
2022/04/23 16:20:33;;;;;;;;;2.25;0.00;;;;;;;;5080716;27;51170;-51
2022/04/23 16:23:18;;;;;;;;;6.50;1.75;;;;;;;;5080599;27;51142;-47
2022/04/23 16:26:03;;;;;;;;;1.50;1.00;;;;;;;;5080097;27;51029;-49
2022/04/23 16:28:50;;;;;;;;;4.25;2.50;;;;;;;;5088059;27;51131;-49
2022/04/23 16:31:55;;;;;;;;;3.75;2.00;;;;;;;;5101288;27;51232;-48
2022/04/23 16:34:44;;;;;;;;;13.00;8.75;;;;;;;;5100351;27;51566;-51
2022/04/23 16:46:41;;;;;;;;;3.75;2.00;;;;;;;;5080364;27;51153;-50
2022/04/23 16:49:25;;;;;;;;;3.00;1.75;;;;;;;;5080051;27;51097;-47
2022/04/23 16:52:19;;;;;;;;;0.00;0.00;;;;;;;;5079812;27;51064;-50
2022/04/23 16:55:09;;;;;;;;;2.25;1.50;;;;;;;;5079738;27;51048;-48
2022/04/23 16:57:53;;;;;;;;;1.00;1.00;;;;;;;;5080470;27;51581;-48
2022/04/23 17:00:39;;;;;;;;;1.00;0.00;;;;;;;;5079460;27;51419;-49
2022/04/23 17:03:25;;;;;;;;;0.00;0.00;;;;;;;;5079783;27;51182;-48
2022/04/23 17:06:11;;;;;;;;;0.25;0.00;;;;;;;;5079949;27;51366;-49
2022/04/23 17:09:00;;;;;;;;;5.00;0.75;;;;;;;;5084874;27;51108;-47
2022/04/23 17:11:45;;;;;;;;;5.25;5.00;;;;;;;;5099616;27;51460;-46
2022/04/23 17:14:44;;;;;;;;;1.00;0.50;;;;;;;;5099953;27;51147;-48
2022/04/23 17:17:31;;;;;;;;;0.00;0.00;;;;;;;;5099908;27;51318;-49
2022/04/23 17:20:21;;;;;;;;;5.75;3.75;;;;;;;;5099993;27;51142;-51
2022/04/23 17:23:20;;;;;;;;;2.75;0.75;;;;;;;;5080156;27;51064;-49
2022/04/23 17:26:07;;;;;;;;;0.00;0.00;;;;;;;;5084606;27;51152;-49
2022/04/23 17:28:55;;;;;;;;;1.00;1.00;;;;;;;;5099625;27;51211;-50
2022/04/23 17:31:40;;;;;;;;;6.25;0.75;;;;;;;;5098546;27;51107;-50
2022/04/23 17:34:27;;;;;;;;;5.25;3.00;;;;;;;;5093417;27;51028;-48
2022/04/23 17:37:13;;;;;;;;;4.50;3.25;;;;;;;;5099776;27;51464;-49
2022/04/23 17:40:00;;;;;;;;;4.75;4.00;;;;;;;;5098378;27;51008;-50
2022/04/23 17:42:45;;;;;;;;;4.00;0.75;;;;;;;;5100189;27;51185;-47
2022/04/23 17:45:32;;;;;;;;;4.00;1.50;;;;;;;;5093008;27;51084;-48
2022/04/23 17:48:19;;;;;;;;;7.50;4.00;;;;;;;;5079821;27;51112;-47
2022/04/23 17:51:06;;;;;;;;;6.00;3.50;;;;;;;;5079600;27;51048;-48
2022/04/23 17:54:09;;;;;;;;;3.25;0.25;;;;;;;;5083635;27;51171;-47
2022/04/23 17:57:04;;;;;;;;;2.50;1.25;;;;;;;;5079909;27;51389;-51